createdAt,value
2022-07-27T04:17:06.296Z,100159.56
2022-07-27T04:19:32.893Z,100159.38
2022-07-27T04:21:59.405Z,100167.06
2022-07-27T04:24:25.920Z,100177.34
2022-07-27T04:26:52.386Z,100175.66
2022-07-27T04:29:20.813Z,100178.84
2022-07-27T04:31:47.955Z,100180.38
2022-07-27T04:34:14.568Z,100177.78
2022-07-27T04:36:41.115Z,100179.69
2022-07-27T04:39:19.471Z,100166.09
2022-07-27T04:41:46.957Z,100176.94
2022-07-27T04:44:13.674Z,100171.03
2022-07-27T04:46:40.666Z,100175.84
2022-07-27T04:49:07.460Z,100177.56
2022-07-27T04:51:35.373Z,100176.94
2022-07-27T04:54:02.674Z,100174.78
2022-07-27T04:56:29.267Z,100176.78
2022-07-27T04:58:56.283Z,100184.09
2022-07-27T05:01:23.447Z,100191.69
2022-07-27T05:03:50.269Z,100189.53
2022-07-27T05:06:17.413Z,100185.28
2022-07-27T05:08:44.041Z,100184.00
2022-07-27T05:11:10.675Z,100181.00
2022-07-27T05:13:40.607Z,100189.06
2022-07-27T05:16:09.220Z,100195.84
2022-07-27T05:18:36.241Z,100192.28
2022-07-27T05:21:03.004Z,100201.50
2022-07-27T05:23:29.493Z,100203.41
2022-07-27T05:26:00.241Z,100223.72
2022-07-27T05:28:30.413Z,100211.66
2022-07-27T05:30:57.193Z,100211.03
2022-07-27T05:33:23.819Z,100209.75
2022-07-27T05:35:50.807Z,100218.13
2022-07-27T05:38:17.370Z,100216.66
2022-07-27T05:40:45.528Z,100218.50
2022-07-27T05:43:12.240Z,100226.22
2022-07-27T05:45:38.808Z,100228.13
2022-07-27T05:48:05.728Z,100226.97
2022-07-27T05:50:32.273Z,100226.09
2022-07-27T05:53:04.021Z,100229.09
2022-07-27T05:55:30.575Z,100233.97
2022-07-27T05:57:57.132Z,100238.19
2022-07-27T06:00:23.719Z,100233.91
2022-07-27T06:02:50.371Z,100240.22
2022-07-27T06:05:17.503Z,100241.72
2022-07-27T06:08:00.811Z,100233.31
2022-07-27T06:10:32.799Z,100227.69
2022-07-27T06:13:00.170Z,100248.41
2022-07-27T06:15:26.762Z,100242.75
2022-07-27T06:17:54.834Z,100242.16
2022-07-27T06:20:22.560Z,100242.25
2022-07-27T06:22:52.282Z,100250.56
2022-07-27T06:25:20.077Z,100247.03
2022-07-27T06:27:49.821Z,100248.72
2022-07-27T06:30:20.558Z,100243.88
2022-07-27T06:32:53.066Z,100248.72
2022-07-27T06:35:21.704Z,100252.47
2022-07-27T06:37:52.713Z,100254.31
2022-07-27T06:40:29.948Z,100248.75
2022-07-27T06:43:00.035Z,100254.75
2022-07-27T06:45:27.346Z,100257.31
2022-07-27T06:47:54.972Z,100259.31
2022-07-27T06:50:22.366Z,100252.91
2022-07-27T06:52:50.974Z,100257.25
2022-07-27T06:55:17.824Z,100256.22
2022-07-27T06:57:50.625Z,100248.19
2022-07-27T07:00:17.310Z,100255.16
2022-07-27T07:02:58.879Z,100256.38
2022-07-27T07:05:26.922Z,100259.59
2022-07-27T07:07:57.285Z,100264.16
2022-07-27T07:10:25.128Z,100264.78
2022-07-27T07:12:56.217Z,100256.88
2022-07-27T07:15:36.000Z,100258.91
2022-07-27T07:18:07.144Z,100259.94
2022-07-27T07:20:42.293Z,100261.47
2022-07-27T07:23:10.522Z,100262.88
2022-07-27T07:25:37.992Z,100264.47
2022-07-27T07:28:09.230Z,100266.81
2022-07-27T07:30:40.207Z,100266.06
2022-07-27T07:33:07.798Z,100269.94
2022-07-27T07:35:35.511Z,100270.47
2022-07-27T07:38:02.068Z,100269.63
2022-07-27T07:40:43.432Z,100275.75
2022-07-27T07:43:12.154Z,100269.47
2022-07-27T07:45:50.848Z,100266.94
2022-07-27T07:48:19.371Z,100265.47
2022-07-27T07:50:45.920Z,100262.66
2022-07-27T07:53:18.292Z,100270.75
2022-07-27T07:55:50.021Z,100277.59
2022-07-27T07:58:16.641Z,100278.44
2022-07-27T08:00:44.401Z,100270.59
2022-07-27T08:03:15.447Z,100274.84
2022-07-27T08:05:42.392Z,100270.03
2022-07-27T08:08:10.405Z,100268.84
2022-07-27T08:10:42.351Z,100276.72
2022-07-27T08:14:10.809Z,100281.97
2022-07-27T08:16:37.897Z,100281.13
2022-07-27T08:19:08.697Z,100286.41
2022-07-27T08:21:36.370Z,100288.06
2022-07-27T08:24:03.389Z,100286.78
2022-07-27T08:26:29.952Z,100280.34
2022-07-27T08:28:59.490Z,100273.31
2022-07-27T08:31:52.482Z,100276.06
2022-07-27T08:34:20.788Z,100270.81
2022-07-27T08:36:47.457Z,100275.81
2022-07-27T08:39:52.327Z,100268.09
2022-07-27T08:42:04.519Z,100279.22
2022-07-27T08:44:34.696Z,100273.47
2022-07-27T08:47:03.667Z,100269.72
2022-07-27T08:49:42.393Z,100267.50
2022-07-27T08:52:11.664Z,100271.75
2022-07-27T08:54:46.375Z,100273.59
2022-07-27T08:57:15.196Z,100267.28
2022-07-27T08:59:49.770Z,100269.75
2022-07-27T09:02:17.890Z,100273.97
2022-07-27T09:04:44.494Z,100265.00
2022-07-27T09:07:27.679Z,100268.63
2022-07-27T09:09:57.329Z,100262.66
2022-07-27T09:12:28.678Z,100259.31
2022-07-27T09:15:19.140Z,100259.31
2022-07-27T09:18:18.751Z,100260.75
2022-07-27T09:20:46.996Z,100269.19
2022-07-27T09:23:27.134Z,100266.16
2022-07-27T09:26:31.672Z,100267.47
2022-07-27T09:29:00.937Z,100273.00
2022-07-27T09:31:30.431Z,100267.81
2022-07-27T09:34:01.702Z,100265.22
2022-07-27T09:36:30.250Z,100263.91
2022-07-27T09:39:07.883Z,100262.13
2022-07-27T09:41:40.470Z,100254.63
2022-07-27T09:46:56.409Z,100261.38
2022-07-27T09:49:31.227Z,100261.56
2022-07-27T09:52:00.973Z,100243.34
2022-07-27T09:54:47.112Z,100250.53
2022-07-27T09:57:19.985Z,100257.63
2022-07-27T09:59:46.859Z,100251.13
2022-07-27T10:02:15.674Z,100242.19
2022-07-27T10:04:43.990Z,100246.16
2022-07-27T10:07:13.741Z,100243.06
2022-07-27T10:09:41.038Z,100263.13
2022-07-27T10:12:08.293Z,100253.25
2022-07-27T10:14:35.547Z,100251.50
2022-07-27T10:17:02.932Z,100253.75
2022-07-27T10:19:36.466Z,100257.50
2022-07-27T10:22:03.625Z,100267.59
2022-07-27T10:24:37.622Z,100251.09
2022-07-27T10:27:26.271Z,100251.50
2022-07-27T10:29:59.649Z,100255.03
2022-07-27T10:32:31.225Z,100258.91
2022-07-27T10:34:58.808Z,100260.88
2022-07-27T10:37:29.730Z,100267.13
2022-07-27T10:40:19.783Z,100265.31
2022-07-27T10:42:54.071Z,100267.69
2022-07-27T10:46:00.059Z,100271.84
2022-07-27T10:48:35.996Z,100267.00
2022-07-27T10:51:09.246Z,100270.53
2022-07-27T10:54:10.573Z,100265.28
2022-07-27T10:56:48.303Z,100267.56
2022-07-27T10:59:58.200Z,100270.94
2022-07-27T11:02:42.395Z,100268.19
2022-07-27T11:05:53.863Z,100267.19
2022-07-27T11:08:34.952Z,100261.66
2022-07-27T11:10:47.997Z,100263.44
2022-07-27T11:13:22.598Z,100270.91
2022-07-27T11:16:24.562Z,100266.31
2022-07-27T11:19:04.186Z,100267.16
2022-07-27T11:21:35.849Z,100266.19
2022-07-27T11:24:19.548Z,100269.06
2022-07-27T11:26:49.411Z,100252.03
2022-07-27T11:29:19.691Z,100259.25
2022-07-27T11:31:57.095Z,100252.72
2022-07-27T11:34:31.146Z,100250.47
2022-07-27T11:37:03.009Z,100246.56
2022-07-27T11:39:59.126Z,100250.41
2022-07-27T11:42:24.126Z,100247.19
2022-07-27T11:44:53.430Z,100247.81
2022-07-27T11:47:23.870Z,100248.09
2022-07-27T11:49:52.089Z,100238.41
2022-07-27T11:52:18.894Z,100238.81
2022-07-27T11:54:51.669Z,100236.72
2022-07-27T11:57:20.829Z,100236.47
2022-07-27T11:59:49.699Z,100233.00
2022-07-27T12:02:20.728Z,100239.41
2022-07-27T12:04:51.964Z,100242.16
2022-07-27T12:07:21.911Z,100247.41
2022-07-27T12:09:57.193Z,100239.34
2022-07-27T12:12:26.745Z,100235.84
2022-07-27T12:15:07.917Z,100245.56
2022-07-27T12:17:56.995Z,100240.44
2022-07-27T12:20:32.505Z,100235.31
2022-07-27T12:23:07.779Z,100244.06
2022-07-27T12:25:35.176Z,100238.53
2022-07-27T12:28:05.691Z,100240.50
2022-07-27T12:30:40.720Z,100238.16
2022-07-27T12:33:25.167Z,100235.47
2022-07-27T12:35:53.193Z,100232.16
2022-07-27T12:38:19.897Z,100237.16
2022-07-27T12:40:50.085Z,100230.16
2022-07-27T12:43:24.967Z,100239.31
2022-07-27T12:45:59.065Z,100225.00
2022-07-27T12:48:38.757Z,100231.00
2022-07-27T12:51:11.884Z,100226.75
2022-07-27T12:53:38.920Z,100229.22
2022-07-27T12:56:12.947Z,100224.72
2022-07-27T12:58:58.762Z,100216.63
2022-07-27T13:01:25.328Z,100217.94
2022-07-27T13:04:17.625Z,100215.63
2022-07-27T13:06:52.432Z,100213.13
2022-07-27T13:09:21.028Z,100210.59
2022-07-27T13:11:48.346Z,100212.22
2022-07-27T13:14:15.492Z,100216.06
2022-07-27T13:16:42.122Z,100219.09
2022-07-27T13:19:10.292Z,100216.75
2022-07-27T13:21:37.244Z,100214.44
2022-07-27T13:24:04.089Z,100205.22
2022-07-27T13:26:36.595Z,100202.34
2022-07-27T13:29:05.028Z,100199.63
2022-07-27T13:31:31.612Z,100197.34
2022-07-27T13:33:58.139Z,100196.56
2022-07-27T13:36:25.355Z,100201.09
2022-07-27T13:38:51.926Z,100202.72
2022-07-27T13:41:23.959Z,100201.81
2022-07-27T13:43:52.704Z,100201.44
2022-07-27T13:46:45.924Z,100197.69
2022-07-27T13:49:12.984Z,100196.28
2022-07-27T13:51:46.012Z,100202.88
2022-07-27T13:54:13.553Z,100192.28
2022-07-27T13:57:09.065Z,100198.84
2022-07-27T13:59:35.578Z,100198.06
2022-07-27T14:02:02.160Z,100193.16
2022-07-27T14:04:29.106Z,100191.09
2022-07-27T14:06:57.851Z,100189.13
2022-07-27T14:09:44.360Z,100193.78
2022-07-27T14:12:10.958Z,100187.41
2022-07-27T14:14:37.683Z,100187.94
2022-07-27T14:17:04.949Z,100180.78
2022-07-27T14:19:31.473Z,100188.88
2022-07-27T14:21:58.376Z,100187.25
2022-07-27T14:24:24.962Z,100183.22
2022-07-27T14:26:51.573Z,100192.19
2022-07-27T14:29:26.430Z,100196.34
2022-07-27T14:31:52.945Z,100203.81
2022-07-27T14:34:19.478Z,100195.41
2022-07-27T14:36:46.044Z,100193.97
2022-07-27T14:39:25.819Z,100197.41
2022-07-27T14:41:52.309Z,100196.81
2022-07-27T14:44:19.183Z,100201.31
2022-07-27T14:46:46.477Z,100196.16
2022-07-27T14:49:14.794Z,100200.91
2022-07-27T14:51:41.721Z,100178.59
2022-07-27T14:54:08.410Z,100175.97
2022-07-27T14:56:36.561Z,100181.25
2022-07-27T14:59:04.412Z,100173.47
2022-07-27T15:01:31.791Z,100168.06
2022-07-27T15:03:58.584Z,100170.75
2022-07-27T15:06:25.165Z,100175.59
2022-07-27T15:08:55.142Z,100177.44
2022-07-27T15:11:21.688Z,100178.47
2022-07-27T15:13:50.495Z,100179.88
2022-07-27T15:16:17.170Z,100178.56
2022-07-27T15:18:45.695Z,100178.53
2022-07-27T15:21:13.872Z,100171.06
2022-07-27T15:23:43.006Z,100171.66
2022-07-27T15:26:13.011Z,100174.38
2022-07-27T15:28:40.661Z,100166.34
2022-07-27T15:31:07.396Z,100161.59
2022-07-27T15:33:34.007Z,100164.16
2022-07-27T15:36:05.381Z,100168.19
2022-07-27T15:38:31.919Z,100165.41
2022-07-27T15:40:58.459Z,100159.44
2022-07-27T15:43:25.185Z,100157.59
2022-07-27T15:45:52.046Z,100159.78
2022-07-27T15:48:20.200Z,100143.00
2022-07-27T15:50:49.906Z,100146.47
2022-07-27T15:53:18.534Z,100137.53
2022-07-27T15:55:46.101Z,100142.66
2022-07-27T15:58:17.922Z,100143.59
2022-07-27T16:00:45.672Z,100141.28
2022-07-27T16:03:14.989Z,100138.53
2022-07-27T16:05:43.027Z,100139.81
2022-07-27T16:08:10.449Z,100130.75
2022-07-27T16:10:38.629Z,100129.69
2022-07-27T16:13:05.862Z,100131.97
2022-07-27T16:15:52.281Z,100134.34
2022-07-27T16:18:18.965Z,100134.53
2022-07-27T16:20:45.516Z,100129.72
2022-07-27T16:23:18.034Z,100119.72
2022-07-27T16:26:10.558Z,100122.53
2022-07-27T16:28:40.975Z,100116.84
2022-07-27T16:31:10.358Z,100112.84
2022-07-27T16:33:43.960Z,100121.50
2022-07-27T16:36:11.535Z,100110.00
2022-07-27T16:38:49.625Z,100109.78
2022-07-27T16:41:26.003Z,100120.16
2022-07-27T16:43:52.850Z,100110.09
2022-07-27T16:46:19.773Z,100114.78
2022-07-27T16:48:46.460Z,100107.38
2022-07-27T16:51:14.934Z,100108.75
2022-07-27T16:53:44.145Z,100099.34
2022-07-27T16:56:11.565Z,100101.38
2022-07-27T16:58:39.325Z,100100.28
2022-07-27T17:01:06.544Z,100099.59
2022-07-27T17:03:33.239Z,100097.19
2022-07-27T17:06:03.613Z,100094.59
2022-07-27T17:08:32.521Z,100097.28
2022-07-27T17:11:00.462Z,100108.84
2022-07-27T17:13:33.439Z,100099.34
2022-07-27T17:16:05.832Z,100105.13
2022-07-27T17:18:39.572Z,100108.84
2022-07-27T17:21:07.442Z,100108.53
2022-07-27T17:23:37.831Z,100102.78
2022-07-27T17:26:06.511Z,100104.03
2022-07-27T17:28:36.669Z,100105.06
2022-07-27T17:31:05.070Z,100101.50
2022-07-27T17:33:31.954Z,100113.13
2022-07-27T17:35:59.889Z,100114.16
2022-07-27T17:38:27.097Z,100107.00
2022-07-27T17:40:54.217Z,100114.94
2022-07-27T17:43:20.942Z,100114.94
2022-07-27T17:45:48.998Z,100116.44
2022-07-27T17:48:15.659Z,100106.53
2022-07-27T17:50:42.207Z,100114.06
2022-07-27T17:53:08.769Z,100114.38
2022-07-27T17:55:37.578Z,100119.72
2022-07-27T17:58:04.420Z,100118.91
2022-07-27T18:00:31.368Z,100129.09
2022-07-27T18:02:58.023Z,100124.53
2022-07-27T18:05:24.639Z,100115.66
2022-07-27T18:07:53.139Z,100121.69
2022-07-27T18:10:20.587Z,100125.16
2022-07-27T18:12:47.165Z,100130.63
2022-07-27T18:15:32.484Z,100129.38
2022-07-27T18:17:59.308Z,100128.66
2022-07-27T18:20:27.098Z,100127.84
2022-07-27T18:22:53.701Z,100132.69
2022-07-27T18:25:22.103Z,100133.38
2022-07-27T18:27:50.040Z,100136.50
2022-07-27T18:30:17.693Z,100134.88
2022-07-27T18:32:45.423Z,100135.66
2022-07-27T18:35:12.708Z,100140.53
2022-07-27T18:37:39.313Z,100137.78
2022-07-27T18:40:07.117Z,100145.38
2022-07-27T18:42:33.751Z,100136.44
2022-07-27T18:45:00.270Z,100149.75
2022-07-27T18:47:26.944Z,100145.38
2022-07-27T18:49:53.541Z,100152.22
2022-07-27T18:52:20.166Z,100157.22
2022-07-27T18:54:46.693Z,100160.19
2022-07-27T18:57:13.482Z,100158.38
2022-07-27T18:59:41.432Z,100167.03
2022-07-27T19:02:08.601Z,100171.72
2022-07-27T19:04:35.856Z,100173.13
2022-07-27T19:07:03.537Z,100173.41
2022-07-27T19:09:33.520Z,100175.78
2022-07-27T19:12:00.222Z,100185.41
2022-07-27T19:14:27.585Z,100185.13
2022-07-27T19:16:54.504Z,100179.00
2022-07-27T19:19:23.332Z,100190.22
2022-07-27T19:21:50.245Z,100200.81
2022-07-27T19:24:16.979Z,100202.34
2022-07-27T19:26:43.906Z,100200.41
2022-07-27T19:29:13.315Z,100202.50
2022-07-27T19:31:40.335Z,100201.06
2022-07-27T19:34:07.156Z,100205.16
2022-07-27T19:36:34.041Z,100208.13
2022-07-27T19:39:05.532Z,100201.84
2022-07-27T19:41:34.314Z,100208.75
2022-07-27T19:44:01.137Z,100206.91
2022-07-27T19:46:28.077Z,100214.31
2022-07-27T19:49:24.186Z,100214.81
2022-07-27T19:51:51.744Z,100222.56
2022-07-27T19:54:19.747Z,100219.06
2022-07-27T19:56:47.410Z,100228.94
2022-07-27T19:59:15.886Z,100230.91
2022-07-27T20:01:43.838Z,100227.47
2022-07-27T20:04:10.595Z,100227.88
2022-07-27T20:06:37.674Z,100235.19
2022-07-27T20:09:07.355Z,100236.03
2022-07-27T20:11:34.104Z,100244.59
2022-07-27T20:14:03.486Z,100244.09
2022-07-27T20:16:32.222Z,100244.22
2022-07-27T20:19:00.238Z,100244.84
2022-07-27T20:21:27.111Z,100237.03
2022-07-27T20:23:54.560Z,100234.59
2022-07-27T20:26:21.313Z,100226.69
2022-07-27T20:28:49.761Z,100232.22
2022-07-27T20:31:16.523Z,100230.41
2022-07-27T20:33:43.139Z,100230.91
2022-07-27T20:36:09.911Z,100230.25
2022-07-27T20:38:36.501Z,100240.75
2022-07-27T20:41:03.097Z,100234.38
2022-07-27T20:43:31.199Z,100236.16
2022-07-27T20:45:58.212Z,100229.13
2022-07-27T20:48:24.830Z,100231.72
2022-07-27T20:50:54.365Z,100228.63
2022-07-27T20:53:21.002Z,100226.38
2022-07-27T20:55:48.128Z,100234.84
2022-07-27T20:58:14.995Z,100232.59
2022-07-27T21:00:41.620Z,100235.78
2022-07-27T21:03:08.644Z,100241.41
2022-07-27T21:05:35.667Z,100237.53
2022-07-27T21:08:05.003Z,100243.88
2022-07-27T21:10:31.613Z,100243.31
2022-07-27T21:12:58.549Z,100242.44
2022-07-27T21:15:33.653Z,100246.66
2022-07-27T21:18:01.734Z,100243.69
2022-07-27T21:20:28.976Z,100249.41
2022-07-27T21:23:14.235Z,100247.75
2022-07-27T21:25:41.062Z,100246.22
2022-07-27T21:28:09.973Z,100240.97
2022-07-27T21:30:38.384Z,100237.16
2022-07-27T21:33:06.488Z,100236.84
2022-07-27T21:35:33.350Z,100242.34
2022-07-27T21:38:02.063Z,100240.91
2022-07-27T21:40:28.631Z,100246.34
2022-07-27T21:42:55.190Z,100241.97
2022-07-27T21:45:21.708Z,100244.78
2022-07-27T21:47:50.547Z,100253.00
2022-07-27T21:50:18.106Z,100254.72
2022-07-27T21:52:44.700Z,100258.44
2022-07-27T21:55:11.375Z,100258.78
2022-07-27T21:57:37.921Z,100257.19
